Ash Grove, Missouri
Current Conditions -  °F | °C
As of 12:52 PM on Friday 24 Oct 2014 (Local Time) from KSGF Reporting Station
Overcast Overcast  
Wind Chill: 73°   Ceiling: 4200
Heat Index: 73°   Visibility: 10mi
Dew Point: 58°   Wind: 9mph
Humidity: 59%   Direction: 230°SW
Pressure: 30.1"   Gusts: NA
Location:  37.32°N, 93.59°W
Report Text: KSGF 241752Z 23008KT 10SM OVC042 23/14 A3010 RMK AO2 SLP186 T02280144 10228 20089 58013
Loading
Personal Weather Stations






























Interactive Weather Map
Tropical Storm Tracking
New forecast layout! Learn more

10-Day Weather Forecast

Advertisements
Track Severe Weather on mobile